createdAt,value
2023-01-20T00:01:52.839Z,100043.41
2023-01-20T00:04:20.406Z,100034.41
2023-01-20T00:06:48.124Z,100038.66
2023-01-20T00:09:17.859Z,100043.41
2023-01-20T00:11:45.817Z,100038.44
2023-01-20T00:14:13.585Z,100037.53
2023-01-20T00:16:41.161Z,100031.66
2023-01-20T00:19:12.499Z,100029.81
2023-01-20T00:21:40.010Z,100036.72
2023-01-20T00:24:07.838Z,100040.53
2023-01-20T00:26:35.339Z,100031.53
2023-01-20T00:29:02.866Z,100023.81
2023-01-20T00:31:32.149Z,100027.97
2023-01-20T00:34:01.647Z,100034.41
2023-01-20T00:36:34.496Z,100038.09
2023-01-20T00:39:05.647Z,100034.88
2023-01-20T00:41:33.813Z,100025.19
2023-01-20T00:44:01.354Z,100039.94
2023-01-20T00:46:29.070Z,100039.59
2023-01-20T00:48:56.571Z,100036.94
2023-01-20T00:51:24.243Z,100042.47
2023-01-20T00:53:51.839Z,100039.16
2023-01-20T00:56:19.301Z,100046.63
2023-01-20T00:58:46.873Z,100044.22
2023-01-20T01:01:14.661Z,100044.47
2023-01-20T01:03:42.473Z,100048.03
2023-01-20T01:06:18.082Z,100058.84
2023-01-20T01:08:46.156Z,100039.38
2023-01-20T01:11:14.448Z,100040.28
2023-01-20T01:13:42.969Z,100049.72
2023-01-20T01:16:15.782Z,100012.88
2023-01-20T01:18:43.938Z,100053.41
2023-01-20T01:21:14.404Z,100052.25
2023-01-20T01:23:42.191Z,100063.44
2023-01-20T01:26:10.716Z,100052.63
2023-01-20T01:28:38.624Z,100058.50
2023-01-20T01:31:08.007Z,100050.66
2023-01-20T01:33:35.901Z,100058.16
2023-01-20T01:36:05.292Z,100051.00
2023-01-20T01:38:32.870Z,100055.97
2023-01-20T01:41:00.794Z,100049.06
2023-01-20T01:43:34.357Z,100060.34
2023-01-20T01:46:02.371Z,100067.16
2023-01-20T01:48:39.520Z,100057.09
2023-01-20T01:51:11.730Z,100055.63
2023-01-20T01:53:54.432Z,100062.63
2023-01-20T01:56:24.350Z,100075.78
2023-01-20T01:58:57.219Z,100073.38
2023-01-20T02:01:26.269Z,100072.22
2023-01-20T02:04:06.088Z,100069.13
2023-01-20T02:06:36.257Z,100071.06
2023-01-20T02:09:05.145Z,100074.66
2023-01-20T02:11:39.218Z,100070.94
2023-01-20T02:14:08.132Z,100072.34
2023-01-20T02:16:57.896Z,100072.09
2023-01-20T02:19:39.773Z,100081.56
2023-01-20T02:22:25.701Z,100081.09
2023-01-20T02:25:15.374Z,100075.09
2023-01-20T02:27:51.407Z,100047.44
2023-01-20T02:30:54.152Z,100065.91
2023-01-20T02:34:00.042Z,100076.03
2023-01-20T02:36:36.541Z,100084.69
2023-01-20T02:39:30.568Z,100084.44
2023-01-20T02:42:30.794Z,100086.53
2023-01-20T02:45:03.635Z,100084.44
2023-01-20T02:47:34.152Z,100092.06
2023-01-20T02:50:51.710Z,100078.81
2023-01-20T02:53:22.815Z,100089.41
2023-01-20T02:55:53.760Z,100082.72
2023-01-20T02:58:44.978Z,100090.44
2023-01-20T03:01:20.959Z,100096.09
2023-01-20T03:03:52.411Z,100091.47
2023-01-20T03:06:24.652Z,100082.03
2023-01-20T03:08:56.389Z,100086.28
2023-01-20T03:11:24.055Z,100089.28
2023-01-20T03:14:05.356Z,100105.75
2023-01-20T03:16:33.485Z,100108.75
2023-01-20T03:19:01.195Z,100105.06
2023-01-20T03:21:29.150Z,100110.34
2023-01-20T03:24:01.573Z,100102.19
2023-01-20T03:26:31.109Z,100103.66
2023-01-20T03:28:59.334Z,100101.25
2023-01-20T03:32:07.744Z,100106.81
2023-01-20T03:34:38.308Z,100101.50
2023-01-20T03:37:07.033Z,100115.00
2023-01-20T03:39:40.040Z,100115.31
2023-01-20T03:42:25.254Z,100112.56
2023-01-20T03:45:07.817Z,100096.91
2023-01-20T03:47:59.672Z,100101.19
2023-01-20T03:50:42.962Z,100105.41
2023-01-20T03:53:35.184Z,100102.19
2023-01-20T03:56:17.571Z,100112.22
2023-01-20T03:58:49.265Z,100112.66
2023-01-20T04:01:19.818Z,100119.69
2023-01-20T04:03:51.000Z,100112.91
2023-01-20T04:06:21.983Z,100118.91
2023-01-20T04:08:57.039Z,100113.50
2023-01-20T04:11:26.385Z,100126.41
2023-01-20T04:13:54.189Z,100111.97
2023-01-20T04:16:23.252Z,100117.19
2023-01-20T04:18:52.032Z,100132.16
2023-01-20T04:21:40.571Z,100131.13
2023-01-20T04:24:22.382Z,100129.97
2023-01-20T04:26:49.902Z,100141.97
2023-01-20T04:29:17.395Z,100129.84
2023-01-20T04:31:44.883Z,100132.78
2023-01-20T04:34:18.540Z,100145.22
2023-01-20T04:36:45.990Z,100135.44
2023-01-20T04:39:13.499Z,100146.09
2023-01-20T04:41:41.052Z,100137.63
2023-01-20T04:44:08.555Z,100148.88
2023-01-20T04:46:37.025Z,100160.88
2023-01-20T04:49:04.732Z,100161.03
2023-01-20T04:51:35.374Z,100150.91
2023-01-20T04:54:02.907Z,100159.69
2023-01-20T04:56:30.401Z,100162.47
2023-01-20T04:58:58.109Z,100155.78
2023-01-20T05:01:25.844Z,100166.97
2023-01-20T05:03:53.427Z,100151.75
2023-01-20T05:06:20.938Z,100155.53
2023-01-20T05:08:48.543Z,100156.81
2023-01-20T05:11:16.071Z,100155.66
2023-01-20T05:13:43.635Z,100165.91
2023-01-20T05:16:11.634Z,100166.22
2023-01-20T05:18:39.380Z,100168.72
2023-01-20T05:21:09.009Z,100182.53
2023-01-20T05:23:36.600Z,100184.97
2023-01-20T05:26:04.076Z,100183.03
2023-01-20T05:28:31.665Z,100184.38
2023-01-20T05:30:59.349Z,100194.84
2023-01-20T05:33:26.840Z,100194.44
2023-01-20T05:35:56.014Z,100186.88
2023-01-20T05:38:23.740Z,100187.31
2023-01-20T05:40:51.195Z,100196.81
2023-01-20T05:43:18.740Z,100198.72
2023-01-20T05:45:47.035Z,100192.50
2023-01-20T05:48:14.484Z,100188.94
2023-01-20T05:51:03.837Z,100198.97
2023-01-20T05:53:43.330Z,100192.50
2023-01-20T05:56:16.260Z,100203.16
2023-01-20T05:58:48.074Z,100194.97
2023-01-20T06:01:27.393Z,100172.00
2023-01-20T06:03:55.368Z,100184.59
2023-01-20T06:06:26.080Z,100163.66
2023-01-20T06:08:54.408Z,100190.59
2023-01-20T06:11:22.327Z,100188.56
2023-01-20T06:13:52.356Z,100182.56
2023-01-20T06:16:30.198Z,100170.53
2023-01-20T06:19:07.595Z,100162.25
2023-01-20T06:21:35.547Z,100193.72
2023-01-20T06:24:07.578Z,100187.94
2023-01-20T06:26:42.951Z,100167.53
2023-01-20T06:29:18.134Z,100195.03
2023-01-20T06:31:46.023Z,100185.84
2023-01-20T06:34:13.923Z,100182.59
2023-01-20T06:36:41.444Z,100180.56
2023-01-20T06:39:16.360Z,100189.75
2023-01-20T06:41:46.841Z,100177.16
2023-01-20T06:44:15.813Z,100181.53
2023-01-20T06:46:49.200Z,100192.66
2023-01-20T06:49:21.931Z,100157.19
2023-01-20T06:51:55.274Z,100172.16
2023-01-20T06:54:25.324Z,100169.19
2023-01-20T06:56:55.419Z,100187.34
2023-01-20T06:59:29.028Z,100160.66
2023-01-20T07:02:06.924Z,100177.56
2023-01-20T07:04:52.058Z,100165.84
2023-01-20T07:07:23.558Z,100168.00
2023-01-20T07:09:57.031Z,100160.19
2023-01-20T07:12:27.459Z,100181.56
2023-01-20T07:15:04.658Z,100167.63
2023-01-20T07:17:40.178Z,100176.28
2023-01-20T07:20:24.730Z,100150.16
2023-01-20T07:22:57.420Z,100153.69
2023-01-20T07:25:32.777Z,100155.00
2023-01-20T07:28:02.611Z,100141.97
2023-01-20T07:30:37.878Z,100160.00
2023-01-20T07:33:10.382Z,100154.50
2023-01-20T07:35:43.305Z,100157.13
2023-01-20T07:38:25.614Z,100154.41
2023-01-20T07:41:22.336Z,100165.38
2023-01-20T07:43:53.620Z,100177.84
2023-01-20T07:46:22.324Z,100163.75
2023-01-20T07:48:50.607Z,100165.63
2023-01-20T07:51:26.017Z,100148.00
2023-01-20T07:53:59.768Z,100127.09
2023-01-20T07:56:37.854Z,100131.81
2023-01-20T07:59:07.908Z,100152.81
2023-01-20T08:01:40.635Z,100125.44
2023-01-20T08:04:08.763Z,100162.47
2023-01-20T08:06:45.687Z,100154.03
2023-01-20T08:09:26.891Z,100119.00
2023-01-20T08:12:05.913Z,100123.00
2023-01-20T08:14:34.225Z,100144.97
2023-01-20T08:17:03.031Z,100152.38
2023-01-20T08:19:30.738Z,100143.63
2023-01-20T08:22:00.933Z,100127.63
2023-01-20T08:24:31.251Z,100128.69
2023-01-20T08:27:01.300Z,100122.00
2023-01-20T08:29:31.575Z,100155.22
2023-01-20T08:32:03.866Z,100114.72
2023-01-20T08:34:32.934Z,100123.63
2023-01-20T08:37:06.101Z,100115.47
2023-01-20T08:39:38.966Z,100127.06
2023-01-20T08:42:11.172Z,100123.53
2023-01-20T08:44:38.872Z,100150.66
2023-01-20T08:47:06.335Z,100130.31
2023-01-20T08:49:34.216Z,100146.63
2023-01-20T08:52:02.305Z,100160.03
2023-01-20T08:54:34.679Z,100151.53
2023-01-20T08:57:02.494Z,100150.41
2023-01-20T08:59:30.064Z,100152.09
2023-01-20T09:01:57.617Z,100155.25
2023-01-20T09:04:25.143Z,100141.72
2023-01-20T09:06:53.108Z,100145.28
2023-01-20T09:09:22.388Z,100161.66
2023-01-20T09:11:53.113Z,100153.00
2023-01-20T09:14:22.695Z,100159.44
2023-01-20T09:16:50.614Z,100157.66
2023-01-20T09:19:18.307Z,100138.34
2023-01-20T09:21:45.797Z,100149.59
2023-01-20T09:24:13.463Z,100153.94
2023-01-20T09:26:40.952Z,100156.41
2023-01-20T09:29:12.408Z,100155.84
2023-01-20T09:31:44.804Z,100164.53
2023-01-20T09:34:19.828Z,100152.25
2023-01-20T09:36:55.549Z,100137.00
2023-01-20T09:39:41.842Z,100153.44
2023-01-20T09:42:55.668Z,100159.25
2023-01-20T09:45:52.522Z,100158.16
2023-01-20T09:49:05.483Z,100159.34
2023-01-20T09:52:05.502Z,100167.75
2023-01-20T09:54:44.172Z,100150.72
2023-01-20T09:57:14.140Z,100171.72
2023-01-20T09:59:48.741Z,100167.16
2023-01-20T10:02:30.017Z,100164.81
2023-01-20T10:05:16.987Z,100164.28
2023-01-20T10:08:01.191Z,100166.53
2023-01-20T10:10:32.487Z,100168.75
2023-01-20T10:13:34.446Z,100187.47
2023-01-20T10:16:08.966Z,100165.59
2023-01-20T10:18:52.275Z,100170.72
2023-01-20T10:21:41.882Z,100173.63
2023-01-20T10:24:19.043Z,100171.78
2023-01-20T10:26:59.580Z,100169.13
2023-01-20T10:29:34.533Z,100182.81
2023-01-20T10:32:08.995Z,100174.00
2023-01-20T10:34:46.042Z,100183.09
2023-01-20T10:37:15.690Z,100180.41
2023-01-20T10:39:57.432Z,100185.25
2023-01-20T10:42:25.880Z,100190.59
2023-01-20T10:44:53.461Z,100181.50
2023-01-20T10:47:44.335Z,100191.94
2023-01-20T10:50:40.895Z,100193.00
2023-01-20T10:53:08.362Z,100189.53
2023-01-20T10:55:52.251Z,100192.47
2023-01-20T10:58:36.280Z,100180.44
2023-01-20T11:01:07.208Z,100194.34
2023-01-20T11:03:43.173Z,100202.09
2023-01-20T11:06:21.046Z,100203.16
2023-01-20T11:08:49.778Z,100194.31
2023-01-20T11:11:22.963Z,100206.91
2023-01-20T11:13:52.505Z,100211.69
2023-01-20T11:16:25.123Z,100211.41
2023-01-20T11:18:59.182Z,100214.59
2023-01-20T11:21:32.065Z,100214.31
2023-01-20T11:24:00.877Z,100210.03
2023-01-20T11:26:33.415Z,100210.03
2023-01-20T11:29:04.428Z,100212.69
2023-01-20T11:31:53.232Z,100187.56
2023-01-20T11:34:36.595Z,100188.31
2023-01-20T11:37:07.017Z,100196.00
2023-01-20T11:39:42.432Z,100189.03
2023-01-20T11:42:21.695Z,100191.44
2023-01-20T11:45:19.854Z,100197.00
2023-01-20T11:48:02.123Z,100190.59
2023-01-20T11:50:50.488Z,100189.75
2023-01-20T11:53:36.725Z,100179.81
2023-01-20T11:56:24.221Z,100184.69
2023-01-20T11:58:58.057Z,100182.75
2023-01-20T12:01:28.080Z,100177.41
2023-01-20T12:04:33.224Z,100187.28
2023-01-20T12:07:06.124Z,100186.06
2023-01-20T12:09:38.924Z,100180.13
2023-01-20T12:12:15.844Z,100189.16
2023-01-20T12:15:12.760Z,100184.66
2023-01-20T12:17:49.345Z,100192.88
2023-01-20T12:20:53.586Z,100189.94
2023-01-20T12:23:33.784Z,100189.16
2023-01-20T12:26:03.502Z,100179.72
2023-01-20T12:28:52.828Z,100185.44
2023-01-20T12:31:24.217Z,100177.31
2023-01-20T12:34:04.699Z,100170.47
2023-01-20T12:36:57.127Z,100178.53
2023-01-20T12:39:37.070Z,100181.41
2023-01-20T12:42:10.731Z,100176.06
2023-01-20T12:44:50.935Z,100178.72
2023-01-20T12:47:41.805Z,100179.81
2023-01-20T12:50:44.689Z,100173.59
2023-01-20T12:53:39.893Z,100171.72
2023-01-20T12:56:50.631Z,100169.88
2023-01-20T12:59:21.097Z,100167.94
2023-01-20T13:02:21.237Z,100158.63
2023-01-20T13:05:03.865Z,100170.88
2023-01-20T13:08:14.814Z,100163.97
2023-01-20T13:11:08.532Z,100162.03
2023-01-20T13:13:56.984Z,100155.31
2023-01-20T13:16:45.955Z,100147.06
2023-01-20T13:19:24.536Z,100142.47
2023-01-20T13:22:06.945Z,100146.09
2023-01-20T13:24:36.280Z,100141.78
2023-01-20T13:27:04.311Z,100145.50
2023-01-20T13:29:37.829Z,100151.44
2023-01-20T13:32:33.120Z,100152.06
2023-01-20T13:35:03.273Z,100154.59
2023-01-20T13:37:39.151Z,100153.25
2023-01-20T13:40:38.350Z,100165.41
2023-01-20T13:43:26.639Z,100170.72
2023-01-20T13:46:03.279Z,100177.63
2023-01-20T13:48:32.937Z,100168.28
2023-01-20T13:51:15.686Z,100170.03
2023-01-20T13:53:44.100Z,100171.97
2023-01-20T13:56:35.733Z,100185.38
2023-01-20T13:59:03.204Z,100166.53
2023-01-20T14:01:30.855Z,100168.63
2023-01-20T14:04:16.940Z,100176.44
2023-01-20T14:06:58.203Z,100158.28
2023-01-20T14:09:26.855Z,100147.16
2023-01-20T14:11:57.164Z,100168.09
2023-01-20T14:14:27.143Z,100168.34
2023-01-20T14:16:56.801Z,100177.94
2023-01-20T14:19:32.846Z,100174.47
2023-01-20T14:22:03.363Z,100165.34
2023-01-20T14:24:36.520Z,100173.97
2023-01-20T14:27:27.032Z,100182.56
2023-01-20T14:29:57.168Z,100175.97
2023-01-20T14:32:32.407Z,100189.84
2023-01-20T14:35:01.051Z,100182.97
2023-01-20T14:37:38.517Z,100195.63
2023-01-20T14:40:27.294Z,100204.47
2023-01-20T14:43:22.795Z,100200.59
2023-01-20T14:45:52.320Z,100193.75
2023-01-20T14:48:33.476Z,100201.25
2023-01-20T14:51:04.501Z,100203.25
2023-01-20T14:53:32.451Z,100200.25
2023-01-20T14:56:07.888Z,100212.03
2023-01-20T14:58:36.706Z,100207.06
2023-01-20T15:01:06.906Z,100186.56
2023-01-20T15:03:34.545Z,100152.72
2023-01-20T15:06:06.363Z,100179.34
2023-01-20T15:08:33.826Z,100179.34
2023-01-20T15:11:22.767Z,100181.75
2023-01-20T15:13:59.107Z,100197.09
2023-01-20T15:16:30.911Z,100199.31
2023-01-20T15:19:13.921Z,100184.06
2023-01-20T15:22:30.741Z,100189.63
2023-01-20T15:25:13.174Z,100185.22
2023-01-20T15:27:40.686Z,100181.13
2023-01-20T15:30:21.724Z,100187.53
2023-01-20T15:32:50.404Z,100173.59
2023-01-20T15:35:23.170Z,100178.16
2023-01-20T15:37:50.813Z,100169.81
2023-01-20T15:40:21.312Z,100179.72
2023-01-20T15:42:51.026Z,100183.56
2023-01-20T15:45:19.150Z,100166.06
2023-01-20T15:47:47.303Z,100168.19
2023-01-20T15:50:22.120Z,100170.03
2023-01-20T15:52:49.951Z,100164.94
2023-01-20T15:55:19.594Z,100170.44
2023-01-20T15:57:51.573Z,100168.25
2023-01-20T16:00:22.226Z,100174.00
2023-01-20T16:02:50.466Z,100161.56
2023-01-20T16:05:18.070Z,100169.22
2023-01-20T16:07:47.978Z,100177.13
2023-01-20T16:10:17.615Z,100183.50
2023-01-20T16:12:46.576Z,100186.22
2023-01-20T16:15:16.634Z,100154.44
2023-01-20T16:17:45.793Z,100170.81
2023-01-20T16:20:22.729Z,100162.66
2023-01-20T16:22:50.621Z,100168.56
2023-01-20T16:25:19.037Z,100164.41
2023-01-20T16:27:46.566Z,100156.44
2023-01-20T16:30:22.606Z,100161.63
2023-01-20T16:32:50.676Z,100153.47
2023-01-20T16:35:20.883Z,100155.16
2023-01-20T16:37:48.604Z,100156.53
2023-01-20T16:40:19.053Z,100153.81
2023-01-20T16:42:47.864Z,100156.72
2023-01-20T16:45:21.748Z,100154.94
2023-01-20T16:47:49.483Z,100155.91
2023-01-20T16:50:18.121Z,100164.69
2023-01-20T16:52:46.283Z,100160.00
2023-01-20T16:55:14.404Z,100142.16
2023-01-20T16:57:42.622Z,100138.69
2023-01-20T17:00:13.116Z,100141.47
2023-01-20T17:02:40.764Z,100135.31
2023-01-20T17:05:09.324Z,100128.41
2023-01-20T17:07:36.947Z,100138.38
2023-01-20T17:10:04.793Z,100121.53
2023-01-20T17:12:32.394Z,100131.69
2023-01-20T17:15:00.055Z,100138.69
2023-01-20T17:17:27.587Z,100148.34
2023-01-20T17:19:55.071Z,100120.97
2023-01-20T17:22:22.626Z,100130.72
2023-01-20T17:24:50.478Z,100122.44
2023-01-20T17:27:18.009Z,100133.91
2023-01-20T17:29:48.614Z,100106.75
2023-01-20T17:32:16.570Z,100123.22
2023-01-20T17:34:44.162Z,100118.75
2023-01-20T17:37:11.753Z,100128.38
2023-01-20T17:39:39.317Z,100119.38
2023-01-20T17:42:06.905Z,100127.22
2023-01-20T17:44:35.430Z,100121.47
2023-01-20T17:47:03.327Z,100142.34
2023-01-20T17:49:31.116Z,100126.06
2023-01-20T17:51:58.619Z,100151.00
2023-01-20T17:54:26.174Z,100134.47
2023-01-20T17:56:53.725Z,100126.97
2023-01-20T17:59:21.320Z,100135.84
2023-01-20T18:01:52.639Z,100129.63
2023-01-20T18:04:20.267Z,100122.03
2023-01-20T18:06:47.840Z,100138.97
2023-01-20T18:09:15.800Z,100125.22
2023-01-20T18:11:43.924Z,100127.03
2023-01-20T18:14:11.595Z,100130.59
2023-01-20T18:16:41.852Z,100136.75
2023-01-20T18:19:15.618Z,100136.28
2023-01-20T18:21:44.407Z,100137.19
2023-01-20T18:24:13.022Z,100141.69
2023-01-20T18:26:43.104Z,100142.06
2023-01-20T18:29:15.016Z,100146.53
2023-01-20T18:31:43.829Z,100143.50
2023-01-20T18:34:13.699Z,100134.75
2023-01-20T18:36:45.359Z,100146.16
2023-01-20T18:39:18.698Z,100142.78
2023-01-20T18:41:46.915Z,100143.75
2023-01-20T18:44:14.857Z,100145.19
2023-01-20T18:46:42.740Z,100138.63
2023-01-20T18:49:18.144Z,100139.41
2023-01-20T18:51:45.760Z,100149.06
2023-01-20T18:54:21.481Z,100155.63
2023-01-20T18:56:49.139Z,100158.88
2023-01-20T18:59:17.017Z,100143.75
2023-01-20T19:01:44.825Z,100160.47
2023-01-20T19:04:14.021Z,100161.44
2023-01-20T19:06:43.868Z,100162.09
2023-01-20T19:09:12.154Z,100168.25
2023-01-20T19:11:41.332Z,100159.69
2023-01-20T19:14:12.613Z,100155.66
2023-01-20T19:16:45.583Z,100134.22
2023-01-20T19:19:13.819Z,100151.28
2023-01-20T19:21:41.820Z,100151.16
2023-01-20T19:24:16.484Z,100143.25
2023-01-20T19:26:44.151Z,100147.72
2023-01-20T19:29:16.017Z,100138.00
2023-01-20T19:31:44.073Z,100143.56
2023-01-20T19:34:11.940Z,100148.06
2023-01-20T19:36:39.509Z,100141.59
2023-01-20T19:39:07.235Z,100139.53
2023-01-20T19:41:36.363Z,100141.97
2023-01-20T19:44:06.913Z,100138.72
2023-01-20T19:46:37.252Z,100146.69
2023-01-20T19:49:05.101Z,100146.69
2023-01-20T19:51:32.645Z,100135.84
2023-01-20T19:54:01.715Z,100143.25
2023-01-20T19:56:32.547Z,100132.84
2023-01-20T19:59:01.448Z,100136.53
2023-01-20T20:01:32.050Z,100132.84
2023-01-20T20:04:03.925Z,100128.09
2023-01-20T20:06:33.950Z,100132.75
2023-01-20T20:09:11.447Z,100127.75
2023-01-20T20:11:39.707Z,100130.75
2023-01-20T20:14:09.269Z,100131.88
2023-01-20T20:16:38.190Z,100118.16
2023-01-20T20:19:07.442Z,100125.28
2023-01-20T20:21:35.249Z,100122.09
2023-01-20T20:24:05.656Z,100128.34
2023-01-20T20:26:36.349Z,100140.78
2023-01-20T20:29:06.409Z,100138.84
2023-01-20T20:31:35.887Z,100131.34
2023-01-20T20:34:05.501Z,100136.78
2023-01-20T20:36:33.840Z,100139.91
2023-01-20T20:39:03.373Z,100126.88
2023-01-20T20:41:32.075Z,100142.56
2023-01-20T20:44:01.282Z,100139.78
2023-01-20T20:46:30.052Z,100142.44
2023-01-20T20:48:59.595Z,100140.84
2023-01-20T20:51:34.986Z,100148.44
2023-01-20T20:54:03.543Z,100143.69
2023-01-20T20:56:32.446Z,100133.44
2023-01-20T20:59:03.029Z,100151.44
2023-01-20T21:01:33.877Z,100146.47
2023-01-20T21:04:03.779Z,100141.31
2023-01-20T21:06:32.045Z,100140.38
2023-01-20T21:09:00.084Z,100143.81
2023-01-20T21:11:28.272Z,100156.97
2023-01-20T21:13:56.203Z,100151.75
2023-01-20T21:16:24.652Z,100154.28
2023-01-20T21:18:54.335Z,100145.19
2023-01-20T21:21:22.625Z,100152.94
2023-01-20T21:23:52.496Z,100164.78
2023-01-20T21:26:21.120Z,100147.72
2023-01-20T21:28:51.865Z,100159.47
2023-01-20T21:31:21.776Z,100157.88
2023-01-20T21:33:54.205Z,100159.16
2023-01-20T21:36:22.809Z,100165.03
2023-01-20T21:38:50.616Z,100150.50
2023-01-20T21:41:18.842Z,100165.69
2023-01-20T21:44:06.239Z,100161.19
2023-01-20T21:46:40.120Z,100167.31
2023-01-20T21:49:27.940Z,100160.94
2023-01-20T21:52:14.788Z,100159.38
2023-01-20T21:54:45.508Z,100156.66
2023-01-20T21:57:14.127Z,100155.53
2023-01-20T21:59:42.579Z,100146.78
2023-01-20T22:02:13.481Z,100155.75
2023-01-20T22:04:42.618Z,100144.00
2023-01-20T22:07:10.692Z,100140.53
2023-01-20T22:09:38.809Z,100147.69
2023-01-20T22:12:06.970Z,100158.06
2023-01-20T22:14:34.484Z,100163.38
2023-01-20T22:17:02.567Z,100147.78
2023-01-20T22:19:30.062Z,100148.59
2023-01-20T22:21:58.239Z,100152.06
2023-01-20T22:24:25.784Z,100160.16
2023-01-20T22:26:53.597Z,100159.13
2023-01-20T22:29:22.530Z,100158.28
2023-01-20T22:31:54.393Z,100154.91
2023-01-20T22:34:22.608Z,100159.28
2023-01-20T22:36:50.068Z,100152.69
2023-01-20T22:39:17.800Z,100156.53
2023-01-20T22:41:45.388Z,100159.50
2023-01-20T22:44:13.001Z,100162.16
2023-01-20T22:46:40.715Z,100163.97
2023-01-20T22:49:08.151Z,100162.75
2023-01-20T22:51:35.687Z,100165.56
2023-01-20T22:54:03.572Z,100165.00
2023-01-20T22:56:32.864Z,100167.13
2023-01-20T22:59:01.075Z,100163.38
2023-01-20T23:01:36.080Z,100158.09
2023-01-20T23:04:06.630Z,100152.78
2023-01-20T23:06:36.403Z,100145.78
2023-01-20T23:09:09.667Z,100159.34
2023-01-20T23:11:38.530Z,100151.94
2023-01-20T23:14:06.978Z,100164.78
2023-01-20T23:16:34.610Z,100162.50
2023-01-20T23:19:02.301Z,100149.56
2023-01-20T23:21:30.276Z,100152.00
2023-01-20T23:23:57.915Z,100166.06
2023-01-20T23:26:30.713Z,100157.25
2023-01-20T23:28:58.816Z,100163.06
2023-01-20T23:31:28.749Z,100160.09
2023-01-20T23:33:56.323Z,100169.34
2023-01-20T23:36:26.048Z,100168.97
2023-01-20T23:38:55.345Z,100164.38
2023-01-20T23:41:23.850Z,100167.44
2023-01-20T23:43:51.545Z,100169.56
2023-01-20T23:46:19.129Z,100165.13
2023-01-20T23:48:48.985Z,100181.78
2023-01-20T23:51:16.937Z,100173.91
2023-01-20T23:53:44.906Z,100177.19
2023-01-20T23:56:15.874Z,100177.03
2023-01-20T23:58:43.917Z,100164.28
